Time;durP1;ratioP1;P1;durP2;ratioP2;P2;SDS_P1;SDS_P2;PMS_P1;PMS_P2;Temp;Humidity;BMP_temperature;BMP_pressure;BME280_temperature;BME280_humidity;BME280_pressure;Samples;Min_cycle;Max_cycle;Signal;HPM_P1;HPM_P2
2023/05/10 00:03:44;;;;;;;;;1.00;0.25;;;;;13.07;72.48;100559.31;5073976;28;45583;-75
2023/05/10 00:06:09;;;;;;;;;1.00;1.00;;;;;13.04;72.59;100555.16;5074011;28;45653;-76
2023/05/10 00:08:35;;;;;;;;;0.50;0.50;;;;;13.05;72.36;100562.09;5074191;27;45613;-74
2023/05/10 00:11:00;;;;;;;;;4.00;1.00;;;;;13.08;72.41;100560.97;5074982;27;45750;-76
2023/05/10 00:13:26;;;;;;;;;1.00;1.00;;;;;13.06;72.31;100563.75;5077527;27;45695;-76
2023/05/10 00:19:13;;;;;;;;;1.75;0.75;;;;;12.99;72.14;100557.31;5066822;28;45791;-77
2023/05/10 00:21:38;;;;;;;;;1.00;0.50;;;;;12.97;71.54;100569.75;5075983;28;46125;-77
2023/05/10 00:24:04;;;;;;;;;0.25;0.25;;;;;12.91;71.79;100552.69;5076199;28;45732;-76
2023/05/10 00:26:29;;;;;;;;;0.00;0.00;;;;;12.86;71.64;100564.53;5077379;27;45592;-75
2023/05/10 00:28:55;;;;;;;;;0.25;0.25;;;;;12.82;71.42;100549.97;5077340;27;46478;-77
2023/05/10 00:31:20;;;;;;;;;0.00;0.00;;;;;12.77;71.28;100554.78;5077382;27;46526;-74
2023/05/10 00:33:45;;;;;;;;;1.00;1.00;;;;;12.80;71.32;100551.88;5077181;27;45518;-75
2023/05/10 00:36:11;;;;;;;;;1.00;0.00;;;;;12.75;71.37;100554.88;5077309;27;45573;-74
2023/05/10 00:38:37;;;;;;;;;0.75;0.00;;;;;12.71;71.01;100561.34;5076944;27;47141;-76
2023/05/10 00:41:02;;;;;;;;;1.00;0.25;;;;;12.65;70.98;100572.34;5077181;27;46124;-77
2023/05/10 00:43:27;;;;;;;;;0.25;0.00;;;;;12.56;70.77;100571.31;5077182;27;45531;-75
2023/05/10 00:49:16;;;;;;;;;0.00;0.00;;;;;12.46;71.13;100580.06;5076904;28;46145;-73
2023/05/10 00:51:42;;;;;;;;;1.00;0.00;;;;;12.44;71.25;100571.44;5074878;28;47817;-75
2023/05/10 00:54:10;;;;;;;;;2.00;0.50;;;;;12.47;71.05;100573.84;5076872;28;45602;-76
2023/05/10 00:56:36;;;;;;;;;1.00;0.00;;;;;12.47;71.30;100568.59;5076810;27;45556;-74
2023/05/10 00:59:02;;;;;;;;;1.00;0.50;;;;;12.48;71.41;100581.59;5076635;27;46306;-76
2023/05/10 01:04:49;;;;;;;;;1.75;1.00;;;;;12.42;71.17;100582.06;5076415;28;45676;-76
2023/05/10 01:07:14;;;;;;;;;0.00;0.00;;;;;12.38;71.13;100580.66;5077033;27;45848;-76
2023/05/10 01:09:40;;;;;;;;;1.50;1.00;;;;;12.42;71.35;100581.22;5076854;27;45545;-75
2023/05/10 01:12:07;;;;;;;;;0.00;0.00;;;;;12.44;70.65;100577.53;5076429;27;46996;-73
2023/05/10 01:14:33;;;;;;;;;0.25;0.00;;;;;12.47;70.58;100587.00;5076805;27;45717;-74
2023/05/10 01:17:00;;;;;;;;;0.00;0.00;;;;;12.48;70.56;100578.13;5076736;27;45691;-75
2023/05/10 01:19:28;;;;;;;;;0.25;0.00;;;;;12.50;70.58;100582.31;5074888;28;46456;-74
2023/05/10 01:22:01;;;;;;;;;0.50;0.00;;;;;12.52;70.29;100571.69;5075944;28;46115;-75
2023/05/10 01:24:52;;;;;;;;;0.00;0.00;;;;;12.48;70.07;100568.44;5076300;27;45870;-74
2023/05/10 01:27:47;;;;;;;;;1.50;0.00;;;;;12.40;69.91;100576.13;5076690;28;45689;-75
2023/05/10 01:30:51;;;;;;;;;1.00;0.00;;;;;12.36;69.91;100590.44;5076021;27;47453;-75
2023/05/10 01:33:23;;;;;;;;;0.00;0.00;;;;;12.32;70.04;100591.63;5076304;28;45933;-74
2023/05/10 01:35:59;;;;;;;;;1.00;0.00;;;;;12.34;70.03;100583.63;5075933;27;45688;-75
2023/05/10 01:38:46;;;;;;;;;0.00;0.00;;;;;12.34;70.28;100584.47;5076592;27;45771;-74
2023/05/10 01:41:19;;;;;;;;;0.00;0.00;;;;;12.33;70.05;100593.31;5091678;27;48608;-74
2023/05/10 01:43:57;;;;;;;;;1.50;0.00;;;;;12.29;70.09;100591.06;5076145;27;46071;-74
2023/05/10 01:46:36;;;;;;;;;1.00;1.00;;;;;12.31;70.56;100587.34;5076045;27;45670;-75
2023/05/10 01:49:07;;;;;;;;;0.75;0.75;;;;;12.32;70.02;100588.16;5076316;27;45521;-75
2023/05/10 01:51:48;;;;;;;;;1.00;0.00;;;;;12.35;70.06;100585.31;5076152;27;46455;-74
2023/05/10 01:54:19;;;;;;;;;0.00;0.00;;;;;12.31;70.00;100582.06;5076297;27;45620;-74
2023/05/10 01:56:47;;;;;;;;;0.00;0.00;;;;;12.28;70.07;100586.75;5076918;27;45545;-72
2023/05/10 01:59:18;;;;;;;;;2.00;0.00;;;;;12.24;69.92;100582.69;5076750;27;45927;-72
2023/05/10 02:01:45;;;;;;;;;0.00;0.00;;;;;12.22;70.12;100584.59;5076458;27;46243;-72
2023/05/10 02:04:15;;;;;;;;;0.00;0.00;;;;;12.23;70.18;100597.63;5076006;27;47255;-72
2023/05/10 02:06:42;;;;;;;;;0.25;0.00;;;;;12.21;70.38;100596.88;5075800;27;45726;-72
2023/05/10 02:09:10;;;;;;;;;0.00;0.00;;;;;12.22;70.22;100598.56;5075816;27;45915;-73
2023/05/10 02:11:38;;;;;;;;;0.50;0.50;;;;;12.25;70.75;100603.59;5075506;27;47842;-72
2023/05/10 02:14:07;;;;;;;;;0.00;0.00;;;;;12.22;70.12;100601.19;5075546;27;46187;-72
2023/05/10 02:16:35;;;;;;;;;0.00;0.00;;;;;12.18;69.93;100597.16;5075337;27;45665;-75
2023/05/10 02:19:01;;;;;;;;;0.00;0.00;;;;;12.18;70.22;100591.88;5075416;27;45525;-74
2023/05/10 02:21:28;;;;;;;;;0.00;0.00;;;;;12.19;70.11;100588.31;5075265;27;47841;-74
2023/05/10 02:23:55;;;;;;;;;0.00;0.00;;;;;12.19;70.30;100589.16;5075724;27;46157;-76
2023/05/10 02:26:23;;;;;;;;;0.00;0.00;;;;;12.19;70.05;100586.53;5075441;27;45712;-77
2023/05/10 02:28:49;;;;;;;;;0.00;0.00;;;;;12.20;70.18;100589.97;5074696;28;45708;-75
2023/05/10 02:31:16;;;;;;;;;0.00;0.00;;;;;12.29;70.29;100598.94;5075812;28;45646;-74
2023/05/10 02:33:43;;;;;;;;;0.00;0.00;;;;;12.28;69.69;100590.22;5075007;27;47398;-75
2023/05/10 02:36:10;;;;;;;;;0.00;0.00;;;;;12.25;69.97;100594.88;5075182;27;45753;-74
2023/05/10 02:38:36;;;;;;;;;0.00;0.00;;;;;12.25;69.93;100589.63;5075493;27;45636;-75
2023/05/10 02:41:05;;;;;;;;;0.00;0.00;;;;;12.29;70.09;100594.53;5075738;27;45655;-74
2023/05/10 02:43:33;;;;;;;;;0.00;0.00;;;;;12.32;70.09;100581.13;5075105;27;46020;-75
2023/05/10 02:45:58;;;;;;;;;0.25;0.00;;;;;12.35;69.70;100598.44;5074546;27;45872;-72
2023/05/10 02:48:24;;;;;;;;;0.00;0.00;;;;;12.35;69.67;100588.78;5075447;27;45741;-75
2023/05/10 02:50:52;;;;;;;;;0.00;0.00;;;;;12.35;69.72;100591.41;5075184;27;45466;-75
2023/05/10 02:53:23;;;;;;;;;0.00;0.00;;;;;12.41;69.88;100579.59;5074849;27;46171;-73
2023/05/10 02:55:52;;;;;;;;;1.00;0.00;;;;;12.47;69.47;100579.91;5075009;27;45553;-75
2023/05/10 02:58:19;;;;;;;;;0.00;0.00;;;;;12.47;69.59;100574.66;5075408;27;45706;-74
2023/05/10 03:00:45;;;;;;;;;0.00;0.00;;;;;12.47;69.45;100569.41;5074939;27;46568;-75
2023/05/10 03:03:10;;;;;;;;;0.00;0.00;;;;;12.52;69.65;100574.31;5074231;27;46184;-74
2023/05/10 03:05:36;;;;;;;;;0.00;0.00;;;;;12.58;69.59;100574.63;5074967;27;45858;-74
2023/05/10 03:08:03;;;;;;;;;0.00;0.00;;;;;12.55;69.51;100569.63;5075398;27;45534;-76
2023/05/10 03:10:31;;;;;;;;;0.00;0.00;;;;;12.50;69.29;100576.22;5074354;28;46935;-76
2023/05/10 03:13:07;;;;;;;;;0.00;0.00;;;;;12.51;69.41;100570.00;5074318;27;47287;-77
2023/05/10 03:22:36;;;;;;;;;1.00;1.00;;;;;12.50;69.70;100590.19;5074147;28;45702;-75
2023/05/10 03:25:06;;;;;;;;;1.00;1.00;;;;;12.45;69.74;100587.09;5074577;27;45986;-73
2023/05/10 03:27:32;;;;;;;;;0.00;0.00;;;;;12.42;69.82;100578.59;5074206;27;45557;-73
2023/05/10 03:29:59;;;;;;;;;0.00;0.00;;;;;12.43;69.90;100586.38;5090114;27;45696;-75
2023/05/10 03:35:46;;;;;;;;;0.00;0.00;;;;;12.54;70.08;100581.09;5074091;28;45556;-75
2023/05/10 03:38:14;;;;;;;;;0.00;0.00;;;;;12.58;69.88;100577.25;5074622;27;45834;-74
2023/05/10 03:40:40;;;;;;;;;0.00;0.00;;;;;12.58;69.86;100573.78;5074376;27;45607;-74
2023/05/10 03:43:05;;;;;;;;;0.00;0.00;;;;;12.60;69.99;100580.63;5073975;27;46468;-74
2023/05/10 03:45:31;;;;;;;;;0.00;0.00;;;;;12.64;70.10;100591.72;5073479;27;47063;-77
2023/05/10 03:51:18;;;;;;;;;2.00;1.00;;;;;12.67;70.15;100582.75;5074331;28;45546;-77
2023/05/10 03:53:43;;;;;;;;;1.25;1.00;;;;;12.65;69.97;100587.28;5073800;27;45648;-77
2023/05/10 03:56:08;;;;;;;;;1.00;0.00;;;;;12.58;70.22;100581.69;5073963;27;46181;-76
2023/05/10 03:58:34;;;;;;;;;2.00;2.00;;;;;12.52;70.90;100576.94;5074455;27;45672;-76
2023/05/10 04:00:59;;;;;;;;;0.25;0.00;;;;;12.55;70.97;100582.78;5073507;27;45855;-76
2023/05/10 04:06:46;;;;;;;;;0.00;0.00;;;;;12.63;70.96;100577.72;5073976;28;45645;-76
2023/05/10 04:09:11;;;;;;;;;0.50;0.50;;;;;12.60;71.51;100570.09;5075127;27;45679;-74
2023/05/10 04:11:37;;;;;;;;;0.00;0.00;;;;;12.62;71.15;100562.09;5074222;27;45585;-75
2023/05/10 04:14:02;;;;;;;;;1.50;1.50;;;;;12.66;71.43;100566.16;5073651;27;46175;-74
2023/05/10 04:16:27;;;;;;;;;0.00;0.00;;;;;12.66;71.33;100563.53;5073621;27;45711;-74
2023/05/10 04:22:15;;;;;;;;;1.00;0.00;;;;;12.50;71.75;100569.16;5064736;28;45651;-75
2023/05/10 04:24:41;;;;;;;;;8.50;6.00;;;;;12.54;71.89;100570.59;5073616;28;45630;-74
2023/05/10 04:27:06;;;;;;;;;0.00;0.00;;;;;12.51;71.88;100562.13;5073803;27;45770;-75
2023/05/10 04:29:31;;;;;;;;;0.75;0.00;;;;;12.51;71.83;100562.97;5073411;27;45585;-73
2023/05/10 04:31:57;;;;;;;;;1.00;0.00;;;;;12.52;72.30;100566.44;5089190;27;45585;-77
2023/05/10 04:34:22;;;;;;;;;0.00;0.00;;;;;12.53;72.39;100563.66;5073089;27;47400;-74
2023/05/10 04:36:48;;;;;;;;;0.00;0.00;;;;;12.56;72.46;100567.84;5073141;27;46226;-73
2023/05/10 04:39:13;;;;;;;;;1.75;0.00;;;;;12.58;72.57;100560.66;5073393;27;45635;-73
2023/05/10 04:41:39;;;;;;;;;0.00;0.00;;;;;12.61;72.50;100557.81;5073368;27;45779;-73
2023/05/10 04:44:04;;;;;;;;;0.75;0.00;;;;;12.58;72.29;100560.66;5073761;27;46339;-75
2023/05/10 04:46:29;;;;;;;;;2.00;2.00;;;;;12.57;72.81;100556.38;5073247;27;45900;-74
2023/05/10 04:52:17;;;;;;;;;0.00;0.00;;;;;12.66;72.79;100553.00;5073408;28;45730;-73
2023/05/10 04:54:43;;;;;;;;;0.00;0.00;;;;;12.65;72.92;100558.38;5073103;27;47417;-75
2023/05/10 04:57:08;;;;;;;;;0.25;0.25;;;;;12.68;72.50;100558.16;5071721;28;47258;-74
2023/05/10 04:59:35;;;;;;;;;0.00;0.00;;;;;12.66;72.95;100555.63;5075190;28;45680;-74
2023/05/10 05:02:01;;;;;;;;;1.75;1.00;;;;;12.65;73.07;100547.88;5076847;27;45550;-74
2023/05/10 05:07:48;;;;;;;;;0.00;0.00;;;;;12.62;73.25;100556.84;5076582;28;46070;-73
2023/05/10 05:10:13;;;;;;;;;4.75;4.75;;;;;12.57;73.56;100557.22;5076043;27;45613;-74
2023/05/10 05:12:38;;;;;;;;;0.00;0.00;;;;;12.57;73.67;100548.50;5076751;27;45620;-73
2023/05/10 05:15:04;;;;;;;;;0.00;0.00;;;;;12.50;73.98;100563.06;5076336;27;47183;-75
2023/05/10 05:17:31;;;;;;;;;1.00;0.00;;;;;12.40;74.04;100565.59;5076226;27;46082;-76
2023/05/10 05:19:56;;;;;;;;;0.00;0.00;;;;;12.41;74.38;100561.19;5076416;27;45685;-75
2023/05/10 05:22:27;;;;;;;;;1.00;1.00;;;;;12.41;74.32;100561.19;5076445;27;45462;-72
2023/05/10 05:24:54;;;;;;;;;0.00;0.00;;;;;12.43;74.57;100567.13;5091768;27;48653;-75
2023/05/10 05:27:20;;;;;;;;;1.00;1.00;;;;;12.43;74.70;100559.25;5076045;27;46389;-75
2023/05/10 05:29:46;;;;;;;;;0.75;0.00;;;;;12.40;74.73;100568.25;5077054;27;45768;-76
2023/05/10 05:32:11;;;;;;;;;0.75;0.75;;;;;12.37;74.67;100575.50;5076031;28;45567;-77
2023/05/10 05:37:58;;;;;;;;;1.00;0.75;;;;;12.41;74.80;100571.69;5076126;28;46085;-77
2023/05/10 05:40:24;;;;;;;;;1.00;1.00;;;;;12.41;74.99;100575.16;5076105;27;45955;-76
2023/05/10 05:42:49;;;;;;;;;4.00;2.00;;;;;12.39;75.15;100569.19;5076063;27;45534;-76
2023/05/10 05:45:15;;;;;;;;;1.00;1.00;;;;;12.39;75.32;100576.22;5075505;27;45997;-76
2023/05/10 05:47:41;;;;;;;;;1.00;1.00;;;;;12.44;75.20;100581.97;5075993;28;46094;-75
2023/05/10 05:53:28;;;;;;;;;2.00;1.50;;;;;12.49;75.61;100582.44;5076047;28;45664;-76
2023/05/10 05:55:55;;;;;;;;;3.00;1.00;;;;;12.51;75.72;100578.72;5075850;27;46231;-77
2023/05/10 05:58:21;;;;;;;;;1.75;1.25;;;;;12.52;75.82;100585.63;5073312;28;46546;-76
2023/05/10 06:00:47;;;;;;;;;1.00;0.75;;;;;12.55;76.19;100592.44;5075340;27;45643;-76
2023/05/10 06:03:12;;;;;;;;;1.50;1.00;;;;;12.61;75.99;100586.72;5074076;27;45673;-73
2023/05/10 06:05:41;;;;;;;;;3.25;3.25;;;;;12.63;76.30;100596.13;5074093;27;46392;-73
2023/05/10 06:08:06;;;;;;;;;2.25;2.25;;;;;12.60;76.04;100606.06;5090026;27;47431;-74
2023/05/10 06:10:32;;;;;;;;;3.00;2.00;;;;;12.61;76.48;100600.69;5075643;27;45621;-76
2023/05/10 06:12:57;;;;;;;;;2.50;2.50;;;;;12.60;77.12;100599.00;5075381;27;45702;-76
2023/05/10 06:15:22;;;;;;;;;3.00;2.25;;;;;12.57;77.92;100596.66;5074852;27;45627;-76
2023/05/10 06:17:49;;;;;;;;;2.75;1.50;;;;;12.49;78.22;100596.41;5075090;27;46294;-76
2023/05/10 06:23:36;;;;;;;;;2.75;2.25;;;;;12.36;78.58;100592.25;5064319;28;45918;-79
2023/05/10 06:26:01;;;;;;;;;3.00;2.00;;;;;12.35;78.80;100594.03;5075232;27;45779;-80
2023/05/10 06:28:27;;;;;;;;;4.00;2.50;;;;;12.37;78.75;100601.78;5075616;27;45715;-76
2023/05/10 06:30:52;;;;;;;;;2.00;2.00;;;;;12.37;78.89;100602.63;5074104;27;45663;-76
2023/05/10 06:33:19;;;;;;;;;1.50;1.50;;;;;12.41;78.76;100606.69;5074058;27;45708;-78
2023/05/10 06:39:06;;;;;;;;;2.00;2.00;;;;;12.44;79.19;100613.50;5075265;28;45930;-76
2023/05/10 06:41:32;;;;;;;;;2.00;2.00;;;;;12.48;78.89;100617.53;5075507;27;45904;-76
2023/05/10 06:43:57;;;;;;;;;2.00;1.75;;;;;12.47;78.67;100610.63;5091439;27;45859;-78
2023/05/10 06:46:23;;;;;;;;;3.00;3.00;;;;;12.51;78.79;100612.06;5075277;27;45709;-74
2023/05/10 06:48:48;;;;;;;;;4.00;3.25;;;;;12.50;78.92;100616.47;5075526;27;46035;-77
2023/05/10 06:51:13;;;;;;;;;2.25;2.00;;;;;12.53;79.23;100613.59;5075176;27;45611;-77
2023/05/10 06:53:39;;;;;;;;;2.50;2.00;;;;;12.61;79.01;100615.63;5075486;27;45574;-73
2023/05/10 06:56:04;;;;;;;;;3.00;2.00;;;;;12.66;79.05;100610.84;5074956;27;46304;-78
2023/05/10 06:58:29;;;;;;;;;2.00;2.00;;;;;12.66;78.96;100612.63;5075157;27;45813;-79
2023/05/10 07:01:01;;;;;;;;;3.00;3.00;;;;;12.69;79.06;100618.47;5074474;27;45670;-76
2023/05/10 07:03:27;;;;;;;;;2.25;2.00;;;;;12.76;79.16;100618.81;5075256;28;45865;-74
2023/05/10 07:09:14;;;;;;;;;2.00;2.00;;;;;12.76;78.70;100624.91;5074512;28;46114;-78
2023/05/10 07:11:40;;;;;;;;;3.00;2.75;;;;;12.80;79.03;100634.22;5074932;28;45622;-74
2023/05/10 07:14:05;;;;;;;;;2.75;1.25;;;;;12.85;79.28;100636.47;5073232;28;45788;-74
2023/05/10 07:16:30;;;;;;;;;3.25;2.00;;;;;12.84;78.76;100633.03;5089301;27;46813;-75
2023/05/10 07:18:56;;;;;;;;;6.25;2.75;;;;;12.88;79.16;100641.50;5074604;27;46020;-73
2023/05/10 07:24:44;;;;;;;;;3.25;2.75;;;;;12.95;79.14;100646.16;5063278;28;45633;-75
2023/05/10 07:27:09;;;;;;;;;2.50;1.00;;;;;12.95;78.73;100642.69;5072937;28;47539;-74
2023/05/10 07:29:35;;;;;;;;;2.00;1.25;;;;;12.91;79.05;100638.63;5074748;27;45619;-75
2023/05/10 07:32:01;;;;;;;;;1.00;1.00;;;;;12.91;79.08;100639.44;5074424;27;45899;-75
2023/05/10 07:34:31;;;;;;;;;3.25;3.00;;;;;12.93;78.96;100639.34;5074949;27;45738;-74
2023/05/10 07:37:07;;;;;;;;;1.00;1.00;;;;;12.94;79.16;100633.13;5073170;28;47676;-75
2023/05/10 07:39:51;;;;;;;;;0.75;0.00;;;;;12.93;78.89;100634.09;5074627;27;45991;-74
2023/05/10 07:42:17;;;;;;;;;3.25;2.25;;;;;12.96;78.90;100645.19;5089929;27;45636;-74
2023/05/10 07:44:43;;;;;;;;;3.25;2.00;;;;;12.99;79.08;100637.06;5074664;27;45680;-76
2023/05/10 07:47:08;;;;;;;;;3.25;2.75;;;;;13.00;78.94;100632.63;5074243;27;45555;-77
2023/05/10 07:49:33;;;;;;;;;1.75;1.75;;;;;13.00;79.02;100637.91;5074136;27;45984;-80
2023/05/10 07:51:59;;;;;;;;;1.75;1.75;;;;;12.96;79.16;100650.44;5074008;27;45584;-77
2023/05/10 07:54:24;;;;;;;;;3.00;2.50;;;;;12.99;79.45;100644.94;5073930;27;45681;-78
2023/05/10 07:56:50;;;;;;;;;2.00;1.50;;;;;13.01;79.34;100658.78;5074059;27;46332;-79
2023/05/10 07:59:17;;;;;;;;;4.50;3.25;;;;;12.99;79.25;100646.75;5074173;27;45592;-74
2023/05/10 08:01:43;;;;;;;;;2.75;2.25;;;;;12.99;79.73;100641.47;5073821;28;45685;-74
2023/05/10 08:04:15;;;;;;;;;3.50;3.00;;;;;12.98;79.50;100645.06;5072463;28;45688;-76
2023/05/10 08:10:03;;;;;;;;;2.25;2.00;;;;;13.01;79.33;100657.94;5073809;28;45715;-75
2023/05/10 08:12:28;;;;;;;;;2.25;2.25;;;;;12.98;79.08;100666.94;5072512;27;45537;-74
2023/05/10 08:14:53;;;;;;;;;2.00;1.00;;;;;12.98;78.94;100653.78;5086615;27;45617;-76
2023/05/10 08:17:19;;;;;;;;;2.50;2.00;;;;;12.97;79.50;100646.84;5072690;27;45659;-73
2023/05/10 08:19:44;;;;;;;;;4.50;3.00;;;;;13.04;79.33;100648.03;5073973;27;46234;-78
2023/05/10 08:22:10;;;;;;;;;2.75;2.00;;;;;13.12;78.89;100657.97;5073629;27;45752;-77
2023/05/10 08:24:38;;;;;;;;;1.25;0.75;;;;;13.18;78.94;100656.63;5073163;28;45832;-79
2023/05/10 08:27:05;;;;;;;;;2.50;2.25;;;;;13.17;78.96;100658.41;5073350;27;46249;-78
2023/05/10 08:29:30;;;;;;;;;1.75;1.50;;;;;13.21;78.52;100657.22;5089181;27;47390;-78
2023/05/10 08:31:56;;;;;;;;;2.25;2.00;;;;;13.23;78.50;100673.72;5074790;27;45891;-75
2023/05/10 08:34:21;;;;;;;;;2.25;1.00;;;;;13.31;78.42;100666.03;5075636;28;45616;-77
2023/05/10 08:40:11;;;;;;;;;1.00;1.00;;;;;13.39;78.42;100682.03;5077131;28;46107;-77
2023/05/10 08:42:42;;;;;;;;;1.00;1.00;;;;;13.43;78.38;100683.47;5077393;27;45804;-73
2023/05/10 08:45:20;;;;;;;;;1.00;1.00;;;;;13.52;78.70;100689.78;5077345;27;45716;-75
2023/05/10 08:47:46;;;;;;;;;1.25;1.00;;;;;13.58;77.30;100689.28;5077203;27;46881;-73
2023/05/10 08:50:14;;;;;;;;;3.50;2.00;;;;;13.65;78.28;100682.53;5077159;27;46648;-74
2023/05/10 08:52:40;;;;;;;;;2.25;2.00;;;;;13.76;77.58;100703.56;5077237;27;45796;-74
2023/05/10 08:55:06;;;;;;;;;4.00;2.00;;;;;13.79;77.33;100695.38;5076809;27;45581;-78
2023/05/10 08:57:31;;;;;;;;;2.50;2.00;;;;;13.78;76.90;100693.72;5076762;28;46554;-75
2023/05/10 08:59:59;;;;;;;;;1.00;1.00;;;;;13.74;76.74;100712.53;5076569;27;46210;-75
2023/05/10 09:02:25;;;;;;;;;3.00;2.25;;;;;13.74;76.65;100709.91;5076875;27;45578;-75
2023/05/10 09:04:51;;;;;;;;;4.00;3.75;;;;;13.76;77.31;100711.47;5074190;27;45662;-77
2023/05/10 09:10:39;;;;;;;;;4.00;3.75;;;;;13.93;77.48;100714.50;5076280;28;46002;-74
2023/05/10 09:13:07;;;;;;;;;4.25;3.00;;;;;13.98;76.96;100709.66;5077017;28;45650;-74
2023/05/10 09:15:32;;;;;;;;;3.00;2.75;;;;;14.03;76.78;100724.13;5076540;27;45594;-77
2023/05/10 09:17:59;;;;;;;;;7.25;4.25;;;;;14.06;76.22;100726.50;5076176;27;46309;-78
2023/05/10 09:20:24;;;;;;;;;4.25;3.75;;;;;14.11;75.72;100747.19;5075108;27;45946;-78
2023/05/10 09:22:49;;;;;;;;;4.00;2.75;;;;;14.07;75.88;100717.63;5074138;27;45598;-78
2023/05/10 09:25:16;;;;;;;;;5.00;5.00;;;;;14.15;76.38;100736.25;5074964;28;45706;-78
2023/05/10 09:27:45;;;;;;;;;5.00;4.00;;;;;14.16;75.94;100730.03;5076523;27;45849;-77
2023/05/10 09:30:16;;;;;;;;;1.75;1.00;;;;;14.14;75.44;100737.22;5076633;27;45674;-77
2023/05/10 09:32:42;;;;;;;;;6.25;4.25;;;;;14.15;75.33;100735.41;5075869;27;45553;-78
2023/05/10 09:35:09;;;;;;;;;3.00;2.50;;;;;14.08;75.61;100753.56;5076511;28;45763;-77
2023/05/10 09:40:57;;;;;;;;;5.50;3.00;;;;;14.08;75.39;100761.47;5075673;28;46028;-78
2023/05/10 09:43:23;;;;;;;;;5.00;3.50;;;;;14.10;75.27;100745.50;5075365;27;45694;-77
2023/05/10 09:45:51;;;;;;;;;5.50;4.25;;;;;14.10;74.83;100756.03;5076383;27;45642;-75
2023/05/10 09:48:17;;;;;;;;;3.75;3.50;;;;;14.12;74.90;100752.34;5075836;27;45524;-73
2023/05/10 09:50:42;;;;;;;;;4.00;4.00;;;;;14.17;74.65;100751.94;5075769;27;45604;-76
2023/05/10 09:53:07;;;;;;;;;5.00;4.25;;;;;14.23;74.69;100754.91;5076126;27;45493;-77
2023/05/10 09:55:35;;;;;;;;;9.25;4.50;;;;;14.30;74.15;100756.03;5075917;27;45509;-77
2023/05/10 09:58:02;;;;;;;;;5.50;4.00;;;;;14.34;74.53;100764.53;5076108;28;46812;-77
2023/05/10 10:00:28;;;;;;;;;10.00;4.75;;;;;14.38;73.90;100776.53;5076004;27;46074;-77
2023/05/10 10:02:58;;;;;;;;;4.25;2.75;;;;;14.41;74.13;100770.19;5075883;27;45537;-76
2023/05/10 10:05:30;;;;;;;;;5.75;5.00;;;;;14.42;73.80;100767.38;5075568;28;45519;-76
2023/05/10 10:11:18;;;;;;;;;5.25;5.00;;;;;14.36;73.05;100762.59;5075225;28;45692;-76
2023/05/10 10:13:43;;;;;;;;;7.00;4.00;;;;;14.37;73.47;100769.59;5075953;27;45798;-75
2023/05/10 10:16:09;;;;;;;;;5.25;4.25;;;;;14.43;73.34;100787.50;5075382;27;45773;-75
2023/05/10 10:18:38;;;;;;;;;5.00;4.50;;;;;14.46;73.17;100762.72;5075744;28;45591;-73
2023/05/10 10:21:06;;;;;;;;;4.75;4.75;;;;;14.53;73.07;100775.22;5075306;27;45912;-76
2023/05/10 10:23:32;;;;;;;;;6.25;5.00;;;;;14.55;72.21;100773.31;5074067;28;45760;-77
2023/05/10 10:25:58;;;;;;;;;4.25;3.75;;;;;14.54;72.02;100770.78;5075731;27;45828;-77
2023/05/10 10:28:51;;;;;;;;;5.25;4.00;;;;;14.54;71.28;100762.88;5074864;27;46848;-76
2023/05/10 10:31:41;;;;;;;;;8.00;6.00;;;;;14.54;71.82;100779.53;5075154;27;45903;-78
2023/05/10 10:34:10;;;;;;;;;5.00;3.75;;;;;14.55;71.73;100773.31;5075533;28;45558;-76
2023/05/10 10:36:46;;;;;;;;;4.25;3.50;;;;;14.55;71.76;100756.66;5075429;27;45677;-75
2023/05/10 10:39:13;;;;;;;;;9.25;5.25;;;;;14.58;72.09;100753.75;5075189;27;46418;-78
2023/05/10 10:41:50;;;;;;;;;6.00;4.25;;;;;14.61;71.43;100751.69;5073647;28;46395;-74
2023/05/10 10:44:44;;;;;;;;;6.50;4.50;;;;;14.63;71.62;100762.94;5075303;27;45576;-72
2023/05/10 10:47:22;;;;;;;;;8.25;4.75;;;;;14.68;70.90;100770.47;5075498;27;45723;-72
2023/05/10 10:49:49;;;;;;;;;5.75;4.75;;;;;14.71;70.94;100767.56;5074790;27;46377;-76
2023/05/10 10:52:20;;;;;;;;;10.00;5.25;;;;;14.72;70.65;100761.31;5074539;27;45890;-75
2023/05/10 10:55:17;;;;;;;;;5.00;4.00;;;;;14.75;70.74;100754.94;5074506;27;45647;-75
2023/05/10 10:58:00;;;;;;;;;10.00;6.00;;;;;14.76;70.24;100764.50;5074548;28;46013;-77
2023/05/10 11:00:35;;;;;;;;;8.75;5.00;;;;;14.80;70.04;100771.19;5074044;27;46583;-77
2023/05/10 11:03:13;;;;;;;;;5.00;5.00;;;;;14.84;69.76;100762.06;5074921;28;46122;-78
2023/05/10 11:05:58;;;;;;;;;5.25;5.00;;;;;14.86;70.14;100774.16;5074762;27;45476;-78
2023/05/10 11:08:31;;;;;;;;;6.00;3.25;;;;;14.90;69.67;100769.47;5075117;27;45516;-77
2023/05/10 11:10:59;;;;;;;;;7.50;6.00;;;;;14.95;69.10;100769.91;5074105;27;46292;-78
2023/05/10 11:13:40;;;;;;;;;6.75;6.00;;;;;14.97;69.13;100768.78;5074759;27;46212;-78
2023/05/10 11:16:25;;;;;;;;;7.00;4.00;;;;;15.01;68.71;100770.16;5074737;27;45786;-76
2023/05/10 11:18:57;;;;;;;;;5.50;4.00;;;;;15.06;68.52;100759.25;5074697;28;45823;-75
2023/05/10 11:21:23;;;;;;;;;4.25;3.25;;;;;15.12;67.73;100758.69;5074149;27;46754;-76
2023/05/10 11:23:51;;;;;;;;;5.25;4.75;;;;;15.14;68.17;100759.38;5073884;28;46273;-77
2023/05/10 11:26:18;;;;;;;;;5.25;4.25;;;;;15.21;67.70;100786.09;5074754;27;45541;-76
2023/05/10 11:28:48;;;;;;;;;4.25;4.00;;;;;15.25;67.62;100761.09;5073293;28;45901;-78
2023/05/10 11:31:14;;;;;;;;;5.00;5.00;;;;;15.30;67.36;100761.50;5074471;27;45653;-77
2023/05/10 11:33:46;;;;;;;;;6.00;5.00;;;;;15.35;67.62;100746.09;5074272;27;46030;-76
2023/05/10 11:36:14;;;;;;;;;5.00;3.50;;;;;15.47;67.87;100750.28;5074552;27;45627;-76
2023/05/10 11:38:40;;;;;;;;;7.00;4.00;;;;;15.55;67.85;100758.38;5074498;27;45575;-79
2023/05/10 11:41:05;;;;;;;;;5.00;4.00;;;;;15.58;66.84;100786.34;5074429;27;45562;-78
2023/05/10 11:43:31;;;;;;;;;4.75;4.00;;;;;15.66;65.87;100771.47;5074235;27;46014;-78
2023/05/10 11:45:56;;;;;;;;;4.00;3.00;;;;;15.68;65.61;100763.41;5089849;27;45707;-76
2023/05/10 11:48:23;;;;;;;;;6.75;5.00;;;;;15.75;65.43;100751.31;5074630;27;45690;-78
2023/05/10 11:50:49;;;;;;;;;4.00;2.75;;;;;15.84;65.50;100747.84;5074136;27;46450;-77
2023/05/10 11:53:15;;;;;;;;;5.25;4.75;;;;;15.92;65.55;100740.88;5074238;28;46340;-78
2023/05/10 11:55:40;;;;;;;;;4.75;4.25;;;;;16.04;65.47;100744.22;5074221;27;45565;-77
2023/05/10 11:58:05;;;;;;;;;7.25;5.00;;;;;16.10;64.41;100748.09;5074320;27;45579;-79
2023/05/10 12:00:31;;;;;;;;;5.00;3.75;;;;;16.14;63.79;100742.38;5074341;27;45579;-76
2023/05/10 12:02:57;;;;;;;;;6.50;5.50;;;;;16.18;63.72;100743.78;5074125;27;45590;-77
2023/05/10 12:05:23;;;;;;;;;5.50;4.00;;;;;16.26;63.29;100748.34;5074206;27;45734;-76
2023/05/10 12:07:48;;;;;;;;;4.75;4.75;;;;;16.33;63.63;100736.25;5074202;27;45631;-76
2023/05/10 12:10:17;;;;;;;;;6.00;4.00;;;;;16.41;63.01;100746.91;5075667;27;45598;-77
2023/05/10 12:12:49;;;;;;;;;4.75;4.50;;;;;16.52;62.94;100727.44;5076026;27;46021;-78
2023/05/10 12:15:23;;;;;;;;;6.50;5.50;;;;;16.65;62.42;100731.44;5073942;27;45688;-78
2023/05/10 12:17:49;;;;;;;;;8.25;6.00;;;;;16.78;61.91;100744.34;5074124;27;45625;-76
2023/05/10 12:20:21;;;;;;;;;6.00;6.00;;;;;16.87;61.09;100721.47;5073973;27;46556;-75
2023/05/10 12:22:50;;;;;;;;;6.00;4.00;;;;;16.93;61.08;100719.06;5073975;27;46167;-78
2023/05/10 12:25:16;;;;;;;;;6.25;5.00;;;;;16.97;60.61;100715.13;5073473;27;45679;-78
2023/05/10 12:27:49;;;;;;;;;6.00;5.00;;;;;16.98;60.46;100724.75;5074009;27;45722;-79
2023/05/10 12:30:20;;;;;;;;;4.75;4.00;;;;;16.93;60.42;100728.81;5073944;28;46812;-78
2023/05/10 12:32:45;;;;;;;;;2.75;2.75;;;;;16.89;60.09;100738.88;5073853;27;46008;-77
2023/05/10 12:35:11;;;;;;;;;3.00;2.00;;;;;16.76;59.85;100736.56;5073240;27;45465;-77
2023/05/10 12:37:38;;;;;;;;;3.25;2.75;;;;;16.65;60.44;100734.09;5072796;27;45509;-75
2023/05/10 12:40:10;;;;;;;;;3.00;3.00;;;;;16.58;61.00;100748.00;5073333;27;45626;-77
2023/05/10 12:42:36;;;;;;;;;5.50;4.75;;;;;16.55;61.40;100730.63;5073428;27;45965;-77
2023/05/10 12:45:03;;;;;;;;;4.00;4.00;;;;;16.61;61.29;100732.72;5073379;27;45671;-77